Lanzarote > ESTACION METEOROLÓGICA Costa Teguise - Teguise

DATOS ACTUALES Online

Ultima actulizacion 21 minutos

22.1 ºC

Temperatura

79

Humedad (%)

1012.69

Presión (mb)

3.4

Precipitación (mm)

25.1 NO

Viento (Km/h)

DATOS DIARIOS

Temperatura últimas 24 horas (ºC)

Humedad últimas 24 horas (%)

Presión atmosférica últimas 24 horas (mb)

Precipitaciones últimas 23 horas (mm)

Viento últimas 24 horas (Km/h)

Hora Temperatura (°C) ºC Precipitación (mm) mm Presión (mb) mb Humedad (%) % Viento (Km/h) km/h
25 - 00:00 23.2 0 1014 76 21.4 NO
25 - 01:00 23 0 1013 77 22.2 NO
25 - 02:00 22.8 0 1013 78 15.7 N
25 - 03:00 22.7 0 1012 78 19 N
25 - 04:00 22.8 0 1013 78 16.7 N
25 - 05:00 22.9 0 1012 78 18.1 N
25 - 06:00 22.9 0 1013 78 13.1 N
25 - 07:00 22.9 0 1013 78 19.9 N
25 - 08:00 23.2 0 1014 76 7.6 N
25 - 09:00 23.5 0 1014 78 23.6 NO
25 - 10:00 23.6 0 1015 77 24.2 NO
25 - 11:00 23.5 0.1 1015 78 22.6 NO
25 - 12:00 23.5 0.1 1015 78 24.3 NO
25 - 13:00 23.6 0.3 1014 79 28.7 NO
25 - 14:00 23.3 0.6 1013 80 35.5 NO
25 - 15:00 23.4 0.9 1012 79 35 NO
25 - 16:00 22.8 1.5 1012 79 31.1 NO
25 - 17:00 22.8 1.8 1013 80 24.3 NO
25 - 18:00 22.1 2.2 1013 81 18.7 NO
25 - 19:00 21.3 2.7 1013 83 18.6 NO
25 - 20:00 21.3 3.1 1014 84 17.2 O
25 - 21:00 21.5 3.4 1013 84 21.1 NO
25 - 22:00 21.2 3.4 1013 82 24.4 NO
25 - 23:00 22.1 3.4 1013 79 25.1 NO
26 - 00:00
Apalmet utiliza cookies propias y de terceros para mejorar la usabilidad y la experiencia web. Política de cookies.